Time;durP1;ratioP1;P1;durP2;ratioP2;P2;SDS_P1;SDS_P2;PMS_P1;PMS_P2;Temp;Humidity;BMP_temperature;BMP_pressure;BME280_temperature;BME280_humidity;BME280_pressure;Samples;Min_cycle;Max_cycle;Signal;HPM_P1;HPM_P2
2023/11/02 00:01:10;;;;;;;1.85;1.08;;;;;;;10.54;100.00;151325.13;10534740;27;20385;-70
2023/11/02 00:06:21;;;;;;;2.90;1.35;;;;;;;10.52;100.00;151321.22;10534876;28;20044;-70
2023/11/02 00:11:49;;;;;;;1.73;1.10;;;;;;;10.61;100.00;151343.19;10535131;28;20381;-70
2023/11/02 00:16:52;;;;;;;2.28;1.50;;;;;;;10.55;100.00;151327.72;10534402;28;20049;-71
2023/11/02 00:21:55;;;;;;;2.92;1.98;;;;;;;10.46;100.00;151305.75;10534023;28;20090;-71
2023/11/02 00:26:57;;;;;;;2.08;1.13;;;;;;;10.48;100.00;151310.91;10534039;28;20449;-70
2023/11/02 00:31:59;;;;;;;2.53;1.52;;;;;;;10.54;100.00;151326.44;10534174;28;20048;-70
2023/11/02 00:37:01;;;;;;;2.53;1.10;;;;;;;10.39;100.00;151287.66;10533535;28;20074;-70
2023/11/02 00:42:03;;;;;;;2.00;1.30;;;;;;;10.54;100.00;151325.13;10534330;28;20500;-70
2023/11/02 00:47:06;;;;;;;2.63;1.23;;;;;;;10.46;100.00;151305.75;10533741;28;20033;-70
2023/11/02 00:52:08;;;;;;;1.67;1.33;;;;;;;10.37;100.00;151281.25;10531632;28;20044;-72
2023/11/02 00:57:46;;;;;;;2.38;1.20;;;;;;;10.47;100.00;151308.31;10533990;28;20071;-71
2023/11/02 01:02:48;;;;;;;3.67;1.40;;;;;;;10.42;100.00;151295.44;10532472;28;20056;-66
2023/11/02 01:07:50;;;;;;;2.60;1.20;;;;;;;10.36;100.00;151279.94;10529482;28;20036;-67
2023/11/02 01:12:53;;;;;;;2.58;1.10;;;;;;;10.43;100.00;151298.00;10505368;28;20044;-66
2023/11/02 01:17:55;;;;;;;1.95;1.50;;;;;;;10.14;100.00;151223.06;10504398;28;20048;-66
2023/11/02 01:23:03;;;;;;;1.60;1.15;;;;;;;10.21;100.00;151242.44;10505091;28;20115;-66
2023/11/02 01:28:08;;;;;;;2.28;1.25;;;;;;;10.08;100.00;151210.16;10503467;28;20047;-67
2023/11/02 01:33:34;;;;;;;1.92;1.23;;;;;;;10.06;100.00;151205.03;10505665;28;20488;-66
2023/11/02 01:38:38;;;;;;;1.88;1.50;;;;;;;10.08;100.00;151210.16;10502716;28;20457;-66
2023/11/02 01:43:47;;;;;;;1.73;1.25;;;;;;;10.20;100.00;151239.88;10502076;28;20052;-66
2023/11/02 01:49:16;;;;;;;2.42;1.52;;;;;;;10.09;100.00;151212.78;10503241;28;20040;-66
2023/11/02 01:54:33;;;;;;;3.45;1.70;;;;;;;10.13;100.00;151220.50;10502188;28;20127;-66
2023/11/02 01:59:43;;;;;;;2.88;1.63;;;;;;;10.28;100.00;151259.28;10501936;28;20080;-66
2023/11/02 02:04:57;;;;;;;2.10;1.52;;;;;;;10.15;100.00;151226.97;10484046;28;20071;-66
2023/11/02 02:10:13;;;;;;;3.28;1.75;;;;;;;10.09;100.00;151211.44;10500403;28;20056;-65
2023/11/02 02:15:19;;;;;;;2.27;1.30;;;;;;;10.09;100.00;151212.78;10501849;28;20044;-66
2023/11/02 02:20:37;;;;;;;2.78;1.42;;;;;;;10.13;100.00;151221.78;10500643;28;20045;-66
2023/11/02 02:26:19;;;;;;;1.63;1.20;;;;;;;10.09;100.00;151211.44;10500181;28;20048;-66
2023/11/02 02:31:32;;;;;;;3.30;1.45;;;;;;;9.89;100.00;151159.84;10470529;28;20135;-66
2023/11/02 02:36:40;;;;;;;3.05;1.58;;;;;;;9.95;100.00;151175.31;10500773;28;20071;-67
2023/11/02 02:41:44;;;;;;;2.10;1.20;;;;;;;9.82;100.00;151143.06;10500997;28;20123;-66
2023/11/02 02:46:47;;;;;;;1.77;1.40;;;;;;;9.52;100.00;151066.97;10500991;28;20056;-66
2023/11/02 02:51:50;;;;;;;2.03;1.20;;;;;;;9.30;100.00;151012.78;10501411;28;20485;-66
2023/11/02 02:56:59;;;;;;;3.22;1.60;;;;;;;9.11;100.00;150963.72;10500971;28;20047;-66
2023/11/02 03:02:01;;;;;;;2.20;1.15;;;;;;;9.35;100.00;151025.66;10500286;28;20067;-66
2023/11/02 03:07:05;;;;;;;3.05;1.50;;;;;;;9.23;100.00;150994.69;10499722;28;20123;-66
2023/11/02 03:12:07;;;;;;;2.15;1.40;;;;;;;8.97;100.00;150928.91;10482055;28;20452;-67
2023/11/02 03:17:24;;;;;;;5.03;1.50;;;;;;;8.89;100.00;150907.00;10481131;28;20364;-67
2023/11/02 03:22:26;;;;;;;3.53;1.92;;;;;;;8.94;100.00;150921.22;10499187;28;20067;-66
2023/11/02 03:28:06;;;;;;;2.78;1.58;;;;;;;9.02;100.00;150940.53;10498761;28;20108;-67
2023/11/02 03:33:25;;;;;;;3.17;1.38;;;;;;;9.16;100.00;150975.34;10498717;28;20056;-66
2023/11/02 03:38:39;;;;;;;3.97;1.67;;;;;;;9.32;100.00;151017.91;10498761;28;20419;-66
2023/11/02 03:44:02;;;;;;;2.63;1.65;;;;;;;9.43;100.00;151045.03;10500281;28;20112;-66
2023/11/02 03:49:12;;;;;;;1.92;1.70;;;;;;;9.45;100.00;151050.16;10497439;28;20460;-66
2023/11/02 03:54:26;;;;;;;3.75;1.80;;;;;;;9.31;100.00;151014.06;10498485;28;20111;-66
2023/11/02 03:59:59;;;;;;;2.30;2.10;;;;;;;9.25;100.00;150998.56;10499181;28;20040;-66
2023/11/02 04:05:07;;;;;;;7.07;2.40;;;;;;;9.35;100.00;151025.66;10498292;28;20064;-66
2023/11/02 04:10:11;;;;;;;2.58;2.25;;;;;;;9.26;100.00;151002.44;10498769;28;20051;-66
2023/11/02 04:15:15;;;;;;;3.10;2.20;;;;;;;9.38;100.00;151032.09;10498532;28;20408;-66
2023/11/02 04:20:17;;;;;;;2.90;1.92;;;;;;;9.34;100.00;151021.78;10498063;28;20488;-66
2023/11/02 04:25:19;;;;;;;3.17;1.77;;;;;;;9.32;100.00;151017.91;10497927;28;20444;-66
2023/11/02 04:30:21;;;;;;;2.83;1.77;;;;;;;9.24;100.00;150995.97;10498353;28;20480;-66
2023/11/02 04:35:23;;;;;;;2.63;2.33;;;;;;;9.29;100.00;151008.88;10497135;28;20553;-67
2023/11/02 04:40:25;;;;;;;2.13;1.92;;;;;;;9.16;100.00;150975.34;10497925;28;20077;-66
2023/11/02 04:45:27;;;;;;;3.33;2.03;;;;;;;9.17;100.00;150979.25;10501388;28;20060;-67
2023/11/02 04:50:29;;;;;;;2.95;1.90;;;;;;;9.03;100.00;150943.09;10505233;28;20048;-66
2023/11/02 04:55:31;;;;;;;4.63;2.00;;;;;;;8.94;100.00;150921.22;10505366;28;20072;-66
2023/11/02 05:00:32;;;;;;;2.10;1.27;;;;;;;8.79;100.00;150882.50;10504152;28;20064;-66
2023/11/02 05:05:34;;;;;;;2.92;1.67;;;;;;;8.74;100.00;150870.91;10503612;28;20511;-66
2023/11/02 05:10:36;;;;;;;2.15;1.75;;;;;;;8.78;100.00;150879.94;10504075;28;20057;-67
2023/11/02 05:15:38;;;;;;;2.50;1.60;;;;;;;8.68;100.00;150854.16;10504880;28;20048;-67
2023/11/02 05:20:57;;;;;;;3.00;1.85;;;;;;;8.54;100.00;150819.31;10504810;28;20044;-67
2023/11/02 05:26:01;;;;;;;2.47;1.55;;;;;;;8.51;100.00;150811.59;10503646;28;20114;-67
2023/11/02 05:31:04;;;;;;;2.30;1.80;;;;;;;8.46;100.00;150798.72;10502439;28;20139;-67
2023/11/02 05:36:06;;;;;;;2.20;1.80;;;;;;;8.50;100.00;150809.00;10542209;28;20044;-67
2023/11/02 05:41:08;;;;;;;3.45;2.33;;;;;;;8.45;100.00;150797.38;10544895;28;20086;-67
2023/11/02 05:46:10;;;;;;;3.25;2.63;;;;;;;8.32;100.00;150765.16;10544568;28;20036;-66
2023/11/02 05:51:11;;;;;;;2.92;2.47;;;;;;;8.31;100.00;150762.56;10544164;28;20043;-67
2023/11/02 05:56:15;;;;;;;4.70;2.60;;;;;;;8.27;100.00;150750.94;10544523;28;20101;-67
2023/11/02 06:01:17;;;;;;;3.00;2.67;;;;;;;8.17;100.00;150725.19;10544807;28;20066;-67
2023/11/02 06:06:20;;;;;;;2.50;2.30;;;;;;;8.29;100.00;150756.13;10544524;28;20120;-67
2023/11/02 06:11:22;;;;;;;4.10;3.55;;;;;;;8.24;100.00;150744.53;10544040;28;20059;-67
2023/11/02 06:16:24;;;;;;;4.55;4.15;;;;;;;8.31;100.00;150761.25;10544151;28;20040;-67
2023/11/02 06:21:25;;;;;;;4.75;4.20;;;;;;;8.37;100.00;150775.47;10542051;28;20048;-67
2023/11/02 06:26:27;;;;;;;5.60;4.50;;;;;;;8.46;100.00;150800.00;10543929;28;20051;-67
2023/11/02 06:31:29;;;;;;;4.18;3.80;;;;;;;8.42;100.00;150788.41;10544039;28;20044;-67
2023/11/02 06:36:31;;;;;;;5.00;4.50;;;;;;;8.64;100.00;150843.84;10542299;28;20127;-67
2023/11/02 06:41:37;;;;;;;4.60;4.22;;;;;;;8.70;100.00;150860.59;10542480;28;20118;-67
2023/11/02 06:46:38;;;;;;;5.07;4.68;;;;;;;8.84;100.00;150895.38;10541476;28;20465;-67
2023/11/02 06:51:40;;;;;;;5.32;4.90;;;;;;;8.89;100.00;150907.00;10508900;28;20059;-67
2023/11/02 06:56:42;;;;;;;5.63;4.97;;;;;;;8.99;100.00;150934.09;10473930;28;20504;-67
2023/11/02 07:01:44;;;;;;;4.93;4.53;;;;;;;9.14;100.00;150970.19;10488319;28;20554;-70
2023/11/02 07:06:46;;;;;;;4.35;4.05;;;;;;;9.17;100.00;150977.94;10496210;28;20045;-70
2023/11/02 07:11:48;;;;;;;4.85;4.10;;;;;;;9.42;100.00;151041.13;10457731;28;20080;-69
2023/11/02 07:16:50;;;;;;;3.15;2.95;;;;;;;9.63;100.00;151094.03;10457261;28;20522;-69
2023/11/02 07:21:52;;;;;;;3.17;2.88;;;;;;;9.68;100.00;151108.22;10456637;28;20045;-69
2023/11/02 07:26:54;;;;;;;2.72;2.47;;;;;;;9.88;100.00;151157.28;10456353;28;20124;-69
2023/11/02 07:31:56;;;;;;;4.13;3.35;;;;;;;9.89;100.00;151161.13;10456888;28;20488;-69
2023/11/02 07:36:59;;;;;;;2.63;2.33;;;;;;;10.03;98.82;151195.97;10455451;28;20049;-69
2023/11/02 07:42:02;;;;;;;2.13;2.03;;;;;;;10.04;99.33;151199.84;10456927;28;20051;-69
2023/11/02 07:47:05;;;;;;;2.63;2.30;;;;;;;10.13;98.85;151221.78;10454989;28;20069;-69
2023/11/02 07:52:07;;;;;;;2.03;1.92;;;;;;;10.17;98.39;151230.81;10456611;28;20041;-69
2023/11/02 07:57:10;;;;;;;3.85;2.13;;;;;;;10.30;96.20;151265.72;10456165;28;20053;-69
2023/11/02 08:02:12;;;;;;;2.28;2.08;;;;;;;10.41;95.60;151291.56;10456433;28;20099;-69
2023/11/02 08:07:14;;;;;;;1.77;1.55;;;;;;;10.48;94.87;151310.91;10456081;28;20051;-69
2023/11/02 08:12:16;;;;;;;1.60;1.50;;;;;;;10.65;94.15;151353.53;10456383;28;20045;-69
2023/11/02 08:17:21;;;;;;;1.67;1.58;;;;;;;10.63;94.29;151348.38;10454017;28;20052;-69
2023/11/02 08:22:23;;;;;;;2.08;1.73;;;;;;;10.79;94.61;151388.38;10463245;28;20084;-69
2023/11/02 08:27:25;;;;;;;12.50;1.50;;;;;;;11.05;93.37;151455.53;10463437;28;20124;-69
2023/11/02 08:32:26;;;;;;;1.98;1.75;;;;;;;11.09;91.16;151464.59;10526419;28;20127;-69
2023/11/02 08:37:29;;;;;;;1.30;1.20;;;;;;;11.30;89.22;151517.56;10512719;28;20062;-69
2023/11/02 08:42:31;;;;;;;1.42;1.33;;;;;;;11.31;88.81;151520.13;10482262;28;20040;-69
2023/11/02 08:47:33;;;;;;;1.75;1.40;;;;;;;11.45;87.20;151556.31;10514811;28;20033;-70
2023/11/02 08:52:35;;;;;;;1.98;1.40;;;;;;;11.41;85.97;151544.69;10504963;28;20407;-69
2023/11/02 08:57:37;;;;;;;1.52;1.42;;;;;;;11.43;89.06;151551.16;10477290;28;20045;-70
2023/11/02 09:02:39;;;;;;;1.63;1.27;;;;;;;11.45;88.38;151556.31;10481994;28;20481;-70
2023/11/02 09:07:40;;;;;;;2.08;1.35;;;;;;;11.37;85.07;151536.91;10533839;28;20045;-69
2023/11/02 09:12:42;;;;;;;1.83;1.10;;;;;;;11.32;88.91;151522.72;10486986;28;20127;-69
2023/11/02 09:17:44;;;;;;;1.50;1.20;;;;;;;11.36;86.87;151534.34;10484531;28;20463;-69
2023/11/02 09:22:46;;;;;;;1.83;1.70;;;;;;;11.40;87.64;151542.09;10462663;28;20044;-69
2023/11/02 09:27:48;;;;;;;1.38;1.27;;;;;;;11.48;87.55;151564.06;10494433;28;20033;-69
2023/11/02 09:32:50;;;;;;;1.52;1.42;;;;;;;11.74;85.83;151629.97;10502161;28;20515;-69
2023/11/02 09:37:51;;;;;;;1.48;1.38;;;;;;;11.69;86.27;151615.78;10502159;28;20040;-69
2023/11/02 09:42:54;;;;;;;2.13;1.30;;;;;;;11.80;84.77;151644.19;10502595;28;20048;-69
2023/11/02 09:47:56;;;;;;;1.55;1.20;;;;;;;11.93;82.38;151677.84;10503756;28;20047;-69
2023/11/02 09:52:58;;;;;;;2.47;1.10;;;;;;;11.92;84.58;151673.97;10544109;28;20537;-70
2023/11/02 09:58:06;;;;;;;1.17;1.08;;;;;;;12.03;82.69;151702.38;10543481;28;20073;-69
2023/11/02 10:03:07;;;;;;;1.40;1.08;;;;;;;12.26;81.48;151760.53;10543958;28;20452;-69
2023/11/02 10:08:09;;;;;;;1.80;1.10;;;;;;;12.20;81.10;151745.03;10542648;28;20040;-68
2023/11/02 10:13:12;;;;;;;1.17;1.08;;;;;;;12.09;80.40;151719.22;10542465;28;20047;-68
2023/11/02 10:18:14;;;;;;;1.48;1.00;;;;;;;12.21;82.94;151748.91;10544420;28;20060;-68
2023/11/02 10:23:16;;;;;;;3.05;0.95;;;;;;;12.42;80.82;151800.63;10542826;28;20048;-68
2023/11/02 10:28:18;;;;;;;1.05;0.95;;;;;;;12.30;81.67;151772.16;10542195;28;20122;-68
2023/11/02 10:33:20;;;;;;;1.05;0.95;;;;;;;12.39;80.90;151794.16;10540899;28;20052;-70
2023/11/02 10:38:22;;;;;;;1.65;1.20;;;;;;;12.50;78.00;151822.63;10541703;28;20039;-70
2023/11/02 10:43:26;;;;;;;1.38;0.98;;;;;;;12.58;78.50;151843.31;10541676;28;20040;-70
2023/11/02 10:48:31;;;;;;;1.50;1.15;;;;;;;12.50;79.12;151822.63;10541245;28;20063;-69
2023/11/02 10:53:49;;;;;;;1.45;1.00;;;;;;;12.51;79.42;151823.91;10542312;28;20090;-69
2023/11/02 10:58:54;;;;;;;1.75;1.13;;;;;;;12.54;78.81;151831.69;10540560;28;20070;-69
2023/11/02 11:03:57;;;;;;;1.02;0.90;;;;;;;12.72;78.28;151876.94;10542919;28;20042;-69
2023/11/02 11:09:01;;;;;;;1.15;0.85;;;;;;;12.70;76.79;151871.75;10540368;28;20126;-69
2023/11/02 11:14:03;;;;;;;1.30;0.98;;;;;;;12.81;76.90;151900.22;10540172;28;20040;-70
2023/11/02 11:19:05;;;;;;;1.08;0.98;;;;;;;12.80;77.37;151898.94;10538866;28;20060;-70
2023/11/02 11:24:16;;;;;;;1.85;1.00;;;;;;;12.90;74.63;151922.22;10539789;28;20075;-70
2023/11/02 11:29:38;;;;;;;1.50;0.82;;;;;;;13.07;74.02;151967.47;10540849;28;20452;-69
2023/11/02 11:35:01;;;;;;;1.17;1.00;;;;;;;13.17;74.01;151990.75;10540381;28;20101;-70
2023/11/02 11:40:06;;;;;;;1.30;1.20;;;;;;;13.11;74.97;151976.53;10540212;28;20051;-70
2023/11/02 11:45:32;;;;;;;1.42;1.20;;;;;;;13.15;71.61;151986.91;10539883;28;20051;-69
2023/11/02 11:50:45;;;;;;;1.40;1.30;;;;;;;13.17;71.49;151992.06;10540484;28;20036;-69
2023/11/02 11:55:51;;;;;;;1.25;1.15;;;;;;;13.12;71.50;151980.41;10539667;28;20048;-70
2023/11/02 12:00:53;;;;;;;1.00;1.00;;;;;;;13.03;73.53;151955.84;10539926;28;20040;-69
2023/11/02 12:05:56;;;;;;;1.38;1.20;;;;;;;13.00;71.20;151948.06;10539726;28;20417;-69
2023/11/02 12:10:59;;;;;;;1.45;1.35;;;;;;;12.92;70.86;151927.34;10539885;28;20050;-70
2023/11/02 12:16:03;;;;;;;1.27;1.17;;;;;;;12.90;70.47;151922.22;10540036;28;20048;-69
2023/11/02 12:21:18;;;;;;;1.45;1.30;;;;;;;12.91;72.22;151926.06;10540382;28;20109;-69
2023/11/02 12:26:24;;;;;;;2.33;1.67;;;;;;;12.88;70.58;151918.28;10539482;28;20115;-69
2023/11/02 12:31:30;;;;;;;1.63;1.40;;;;;;;12.76;71.96;151887.28;10540211;28;20037;-69
2023/11/02 12:36:33;;;;;;;1.65;1.55;;;;;;;12.59;73.12;151845.91;10539515;28;20047;-69
2023/11/02 12:41:35;;;;;;;1.92;1.27;;;;;;;12.70;72.90;151873.03;10539360;28;20463;-69
2023/11/02 12:46:44;;;;;;;2.40;1.58;;;;;;;12.67;72.57;151864.03;10538694;28;20115;-69
2023/11/02 12:52:08;;;;;;;1.77;1.67;;;;;;;12.61;72.82;151849.75;10539276;28;20040;-70
2023/11/02 12:57:10;;;;;;;2.65;2.00;;;;;;;12.46;73.60;151811.00;10539620;28;20105;-68
2023/11/02 13:02:24;;;;;;;1.70;1.60;;;;;;;12.55;73.34;151834.25;10513000;22;20073;-72
2023/11/02 13:07:28;;;;;;;1.98;1.77;;;;;;;12.48;75.76;151817.44;10386355;28;20056;-73
2023/11/02 13:12:31;;;;;;;2.58;1.73;;;;;;;12.49;74.52;151818.75;10403264;28;20041;-73
2023/11/02 13:17:33;;;;;;;1.90;1.70;;;;;;;12.52;74.24;151827.78;10388807;28;20100;-74
2023/11/02 13:22:36;;;;;;;2.53;2.33;;;;;;;12.51;76.61;151823.91;10388745;28;20053;-72
2023/11/02 13:27:38;;;;;;;2.00;1.90;;;;;;;12.56;75.43;151836.84;10387240;28;20046;-73
2023/11/02 13:32:43;;;;;;;1.80;1.70;;;;;;;12.53;76.77;151830.41;10386058;28;20116;-74
2023/11/02 13:37:46;;;;;;;2.40;2.20;;;;;;;12.42;76.75;151801.94;10383840;28;20053;-73
2023/11/02 13:42:48;;;;;;;2.13;2.03;;;;;;;12.32;78.50;151776.09;10385006;28;20060;-73
2023/11/02 13:47:50;;;;;;;1.90;1.80;;;;;;;12.46;78.17;151811.00;10383553;28;20064;-72
2023/11/02 13:52:52;;;;;;;2.08;1.98;;;;;;;12.38;78.94;151791.59;10388035;28;20417;-73
2023/11/02 13:57:54;;;;;;;1.98;1.60;;;;;;;12.37;79.49;151790.28;10385735;28;20116;-72
2023/11/02 14:02:56;;;;;;;2.38;2.17;;;;;;;12.34;81.03;151782.53;10386177;28;20046;-73
2023/11/02 14:07:58;;;;;;;2.30;1.98;;;;;;;12.30;80.89;151772.16;10385624;28;20410;-73
2023/11/02 14:13:00;;;;;;;1.70;1.52;;;;;;;12.27;80.50;151763.16;10387035;28;20053;-73
2023/11/02 14:18:03;;;;;;;2.00;1.80;;;;;;;12.40;79.54;151795.50;10386364;28;20046;-73
2023/11/02 14:23:05;;;;;;;2.83;1.90;;;;;;;12.39;80.08;151794.16;10386094;28;20055;-73
2023/11/02 14:28:07;;;;;;;2.10;1.88;;;;;;;12.38;80.22;151792.88;10401854;28;20053;-72
2023/11/02 14:33:11;;;;;;;2.17;1.90;;;;;;;12.32;79.55;151776.09;10387111;28;20121;-72
2023/11/02 14:38:13;;;;;;;2.47;1.98;;;;;;;12.34;79.94;151781.22;10385802;28;20042;-72
2023/11/02 14:43:15;;;;;;;3.33;1.92;;;;;;;12.24;81.19;151755.38;10384749;28;20432;-73
2023/11/02 14:48:17;;;;;;;2.35;1.80;;;;;;;12.20;81.10;151746.34;10383646;28;20065;-74
2023/11/02 14:53:20;;;;;;;1.70;1.60;;;;;;;12.25;80.53;151759.25;10384674;28;20077;-73
2023/11/02 14:58:22;;;;;;;2.17;1.98;;;;;;;12.28;80.61;151765.72;10384905;28;20045;-73
2023/11/02 15:03:24;;;;;;;2.90;1.48;;;;;;;12.27;81.17;151763.16;10387423;28;20053;-73
2023/11/02 15:08:26;;;;;;;1.92;1.80;;;;;;;12.09;82.60;151717.91;10384851;28;20049;-74
2023/11/02 15:13:29;;;;;;;2.88;2.05;;;;;;;12.10;82.80;151721.78;10383528;28;20050;-74
2023/11/02 15:18:31;;;;;;;1.88;1.77;;;;;;;12.12;83.32;151725.63;10383491;28;20050;-74
2023/11/02 15:23:33;;;;;;;2.30;2.10;;;;;;;11.99;83.97;151692.03;10386383;28;20049;-74
2023/11/02 15:28:37;;;;;;;2.60;2.40;;;;;;;12.07;83.84;151712.72;10391667;28;20042;-74
2023/11/02 15:33:39;;;;;;;2.40;2.20;;;;;;;12.17;82.90;151738.56;10386003;28;20065;-73
2023/11/02 15:38:42;;;;;;;3.20;2.80;;;;;;;12.07;83.49;151712.72;10386191;28;20046;-72
2023/11/02 15:43:43;;;;;;;3.13;2.63;;;;;;;12.05;84.25;151708.88;10384580;28;20386;-74
2023/11/02 15:48:45;;;;;;;4.63;2.50;;;;;;;12.03;84.01;151703.66;10385082;28;20048;-72
2023/11/02 15:53:49;;;;;;;2.92;2.72;;;;;;;12.14;82.58;151729.56;10385489;28;20457;-72
2023/11/02 15:58:50;;;;;;;3.17;2.78;;;;;;;11.94;85.03;151680.41;10378690;28;20042;-73
2023/11/02 16:03:52;;;;;;;3.83;3.53;;;;;;;12.06;83.86;151711.44;10382721;28;20096;-73
2023/11/02 16:08:56;;;;;;;5.03;4.63;;;;;;;12.03;84.62;151703.66;10383177;28;20038;-72
2023/11/02 16:14:02;;;;;;;3.38;3.08;;;;;;;12.00;85.06;151694.66;10380953;28;20100;-73
2023/11/02 16:19:04;;;;;;;4.43;4.03;;;;;;;11.92;87.08;151675.25;10379346;28;20045;-71
2023/11/02 16:24:07;;;;;;;3.88;3.47;;;;;;;11.96;87.88;151684.31;10377054;28;20050;-73
2023/11/02 16:29:09;;;;;;;4.57;4.28;;;;;;;11.88;89.17;151664.91;10373018;28;20053;-72
2023/11/02 16:34:16;;;;;;;4.32;4.03;;;;;;;11.70;91.25;151619.63;10419601;28;20041;-72
2023/11/02 16:39:29;;;;;;;4.00;3.70;;;;;;;11.55;93.74;151580.84;10381825;28;20104;-72
2023/11/02 16:44:32;;;;;;;5.38;4.97;;;;;;;11.58;97.78;151589.91;10394692;28;20050;-71
2023/11/02 16:49:34;;;;;;;5.85;5.35;;;;;;;11.26;100.00;151507.22;10387005;28;20057;-71
2023/11/02 16:54:36;;;;;;;6.30;5.30;;;;;;;11.23;100.00;151499.47;10389073;28;20045;-71
2023/11/02 16:59:38;;;;;;;7.32;6.82;;;;;;;11.02;100.00;151446.47;10389499;28;20034;-72
2023/11/02 17:04:40;;;;;;;6.70;6.18;;;;;;;11.08;100.00;151462.00;10405973;28;20041;-71
2023/11/02 17:09:42;;;;;;;7.18;6.68;;;;;;;11.01;100.00;151443.91;10427239;28;20053;-72
2023/11/02 17:14:44;;;;;;;8.65;7.63;;;;;;;10.94;100.00;151425.88;10427286;28;20045;-71
2023/11/02 17:19:45;;;;;;;7.40;6.88;;;;;;;10.77;100.00;151384.53;10425038;28;20034;-71
2023/11/02 17:24:47;;;;;;;9.10;8.40;;;;;;;10.64;100.00;151349.66;10424190;28;20103;-71
2023/11/02 17:29:50;;;;;;;10.10;9.27;;;;;;;10.98;100.00;151436.16;10424940;28;20061;-71
2023/11/02 17:34:52;;;;;;;9.63;8.80;;;;;;;10.92;100.00;151420.66;10426259;28;20053;-70
2023/11/02 17:39:53;;;;;;;9.88;9.18;;;;;;;10.84;100.00;151402.56;10429918;28;20048;-70
2023/11/02 17:44:55;;;;;;;10.48;9.75;;;;;;;10.71;100.00;151367.72;10426002;28;20073;-70
2023/11/02 17:49:59;;;;;;;10.48;9.73;;;;;;;10.75;100.00;151378.03;10429486;28;20041;-69
2023/11/02 17:55:05;;;;;;;9.15;8.45;;;;;;;10.82;100.00;151397.44;10427081;28;20056;-70
2023/11/02 18:00:11;;;;;;;8.77;8.10;;;;;;;10.65;100.00;151353.53;10428695;28;20042;-71
2023/11/02 18:05:13;;;;;;;9.02;8.23;;;;;;;10.66;100.00;151356.09;10424084;28;20115;-71
2023/11/02 18:10:15;;;;;;;8.85;8.20;;;;;;;10.58;100.00;151335.41;10423881;28;20386;-71
2023/11/02 18:15:17;;;;;;;8.35;7.65;;;;;;;10.55;100.00;151329.00;10423002;28;20053;-70
2023/11/02 18:20:19;;;;;;;14.48;6.18;;;;;;;10.54;100.00;151325.13;10408094;28;20493;-70
2023/11/02 18:25:21;;;;;;;6.88;6.38;;;;;;;10.44;100.00;151299.28;10423610;28;20046;-70
2023/11/02 18:30:24;;;;;;;7.57;6.97;;;;;;;10.51;100.00;151317.38;10423709;28;20041;-69
2023/11/02 18:35:26;;;;;;;7.43;6.82;;;;;;;10.57;100.00;151334.13;10424734;28;20045;-70
2023/11/02 18:40:28;;;;;;;6.60;6.10;;;;;;;10.44;100.00;151299.28;10429257;28;20572;-72
2023/11/02 18:45:29;;;;;;;6.68;6.10;;;;;;;10.43;100.00;151296.72;10422595;28;20038;-71
2023/11/02 18:50:31;;;;;;;6.40;5.80;;;;;;;10.51;100.00;151318.66;10421063;28;20038;-70
2023/11/02 18:55:33;;;;;;;6.53;5.97;;;;;;;10.35;100.00;151278.63;10423031;28;20041;-71
2023/11/02 19:00:36;;;;;;;10.98;10.02;;;;;;;10.19;100.00;151237.28;10422226;28;20057;-71
2023/11/02 19:05:39;;;;;;;6.38;5.85;;;;;;;10.23;100.00;151246.34;10367795;22;20039;-69
2023/11/02 19:10:41;;;;;;;6.63;6.13;;;;;;;10.48;100.00;151310.91;10335767;28;20042;-72
2023/11/02 19:15:44;;;;;;;6.53;5.93;;;;;;;10.39;100.00;151287.66;10336773;28;20075;-69
2023/11/02 19:20:49;;;;;;;6.53;6.03;;;;;;;10.35;100.00;151277.34;10335536;28;20505;-70
2023/11/02 19:25:53;;;;;;;5.68;5.25;;;;;;;10.28;100.00;151259.28;10334448;28;20092;-69
2023/11/02 19:30:54;;;;;;;6.13;5.63;;;;;;;10.40;100.00;151288.94;10334074;28;20046;-69
2023/11/02 19:35:59;;;;;;;5.28;4.78;;;;;;;10.56;100.00;151330.28;10335184;28;20105;-69
2023/11/02 19:41:03;;;;;;;4.88;4.47;;;;;;;10.55;100.00;151327.72;10334359;28;20053;-71
2023/11/02 19:46:04;;;;;;;5.65;5.22;;;;;;;10.30;100.00;151264.44;10335666;28;20100;-70
2023/11/02 19:51:11;;;;;;;6.38;5.63;;;;;;;10.17;100.00;151232.09;10318509;28;20055;-70
2023/11/02 19:56:13;;;;;;;6.47;5.97;;;;;;;10.16;100.00;151228.25;10335728;28;20043;-70
2023/11/02 20:01:15;;;;;;;7.50;6.05;;;;;;;10.17;100.00;151232.09;10335912;28;20081;-70
2023/11/02 20:06:16;;;;;;;6.93;6.32;;;;;;;10.26;100.00;151255.38;10333508;28;20069;-70
2023/11/02 20:11:18;;;;;;;6.60;6.10;;;;;;;10.46;100.00;151305.75;10333926;28;20042;-73
2023/11/02 20:16:20;;;;;;;6.28;5.78;;;;;;;10.36;100.00;151279.94;10338345;28;20042;-71
2023/11/02 20:21:23;;;;;;;6.07;5.57;;;;;;;10.36;100.00;151279.94;10341889;28;20122;-71
2023/11/02 20:26:25;;;;;;;7.05;6.45;;;;;;;10.49;100.00;151312.19;10341556;28;20116;-70
2023/11/02 20:31:27;;;;;;;6.78;6.28;;;;;;;10.38;100.00;151285.09;10341118;28;20054;-72
2023/11/02 20:36:29;;;;;;;6.97;5.97;;;;;;;10.28;100.00;151259.28;10341716;28;20069;-71
2023/11/02 20:41:31;;;;;;;7.22;6.63;;;;;;;10.21;100.00;151241.16;10342200;28;20204;-71
2023/11/02 20:46:35;;;;;;;7.38;6.78;;;;;;;10.07;100.00;151206.31;10342261;28;20121;-72
2023/11/02 20:51:37;;;;;;;8.07;7.47;;;;;;;9.95;100.00;151176.59;10341650;28;20062;-71
2023/11/02 20:56:43;;;;;;;7.68;7.07;;;;;;;9.94;100.00;151174.03;10339994;28;20129;-71
2023/11/02 21:01:44;;;;;;;9.15;8.45;;;;;;;10.13;100.00;151220.50;10340214;28;20053;-72
2023/11/02 21:06:48;;;;;;;9.27;8.57;;;;;;;10.10;100.00;151215.34;10340893;28;20490;-71
2023/11/02 21:12:00;;;;;;;9.65;8.85;;;;;;;10.07;100.00;151206.31;10340747;28;20096;-71
2023/11/02 21:17:02;;;;;;;10.10;9.40;;;;;;;10.20;100.00;151239.88;10339159;28;20056;-72
2023/11/02 21:22:04;;;;;;;9.65;8.95;;;;;;;10.10;100.00;151215.34;10339817;28;20158;-72
2023/11/02 21:27:06;;;;;;;11.45;10.55;;;;;;;10.21;100.00;151241.16;10339343;28;20078;-72
2023/11/02 21:32:09;;;;;;;10.20;9.40;;;;;;;9.97;100.00;151181.78;10339733;28;20583;-72
2023/11/02 21:37:11;;;;;;;12.38;11.40;;;;;;;9.87;100.00;151155.94;10339474;28;20097;-71
2023/11/02 21:42:13;;;;;;;10.15;9.35;;;;;;;9.90;100.00;151162.41;10340013;28;20038;-72
2023/11/02 21:47:14;;;;;;;10.35;9.55;;;;;;;9.87;100.00;151155.94;10338716;28;20489;-72
2023/11/02 21:52:16;;;;;;;12.50;11.45;;;;;;;9.84;100.00;151148.25;10338777;28;20043;-72
2023/11/02 21:57:20;;;;;;;11.40;10.50;;;;;;;9.94;100.00;151174.03;10338455;28;20051;-71
2023/11/02 22:02:21;;;;;;;12.02;11.13;;;;;;;9.95;100.00;151175.31;10338001;28;20141;-71
2023/11/02 22:07:23;;;;;;;13.25;12.20;;;;;;;10.00;100.00;151188.22;10337741;28;20050;-71
2023/11/02 22:12:25;;;;;;;13.57;12.45;;;;;;;10.28;100.00;151259.28;10337610;28;20038;-71
2023/11/02 22:17:28;;;;;;;12.68;11.68;;;;;;;10.34;100.00;151276.06;10335757;28;20125;-71
2023/11/02 22:22:29;;;;;;;12.75;11.65;;;;;;;10.02;100.00;151194.69;10336753;28;20129;-71
2023/11/02 22:27:31;;;;;;;13.77;12.68;;;;;;;9.89;100.00;151161.13;10337753;28;20046;-71
2023/11/02 22:32:35;;;;;;;13.82;12.73;;;;;;;9.93;100.00;151171.47;10336488;28;20506;-71
2023/11/02 22:37:36;;;;;;;13.07;12.00;;;;;;;10.05;100.00;151202.44;10335702;28;20046;-71
2023/11/02 22:42:39;;;;;;;13.43;12.32;;;;;;;9.99;100.00;151186.94;10336889;28;20038;-71
2023/11/02 22:47:40;;;;;;;13.18;11.95;;;;;;;9.92;100.00;151168.91;10335600;28;20046;-71
2023/11/02 22:52:43;;;;;;;12.82;11.73;;;;;;;10.10;100.00;151214.06;10334185;28;20057;-71
2023/11/02 22:57:44;;;;;;;12.98;11.82;;;;;;;10.18;100.00;151234.72;10335553;28;20046;-71
2023/11/02 23:02:46;;;;;;;13.23;12.13;;;;;;;10.31;100.00;151267.00;10335197;28;20042;-71
2023/11/02 23:07:49;;;;;;;13.02;11.88;;;;;;;9.94;100.00;151174.03;10334977;28;20047;-71
2023/11/02 23:12:51;;;;;;;13.55;12.43;;;;;;;9.78;100.00;151134.06;10334909;28;20038;-71